sensor_id;sensor_type;location;lat;lon;timestamp;pressure;altitude;pressure_sealevel;temperature;humidity
55191;BME280;41070;50.360;18.742;2024-02-15T00:01:28;99166.45;;;6.12;93.70
55191;BME280;41070;50.360;18.742;2024-02-15T00:03:56;99166.80;;;6.13;93.33
55191;BME280;41070;50.360;18.742;2024-02-15T00:06:23;99171.21;;;6.15;93.94
55191;BME280;41070;50.360;18.742;2024-02-15T00:08:51;99176.88;;;6.19;93.67
55191;BME280;41070;50.360;18.742;2024-02-15T00:11:19;99177.30;;;6.22;93.73
55191;BME280;41070;50.360;18.742;2024-02-15T00:13:47;99177.44;;;6.23;93.58
55191;BME280;41070;50.360;18.742;2024-02-15T00:16:15;99178.16;;;6.24;93.88
55191;BME280;41070;50.360;18.742;2024-02-15T00:18:42;99178.45;;;6.27;93.77
55191;BME280;41070;50.360;18.742;2024-02-15T00:21:11;99182.23;;;6.29;93.84
55191;BME280;41070;50.360;18.742;2024-02-15T00:23:41;99179.77;;;6.30;93.78
55191;BME280;41070;50.360;18.742;2024-02-15T00:26:09;99180.08;;;6.26;93.42
55191;BME280;41070;50.360;18.742;2024-02-15T00:28:38;99181.92;;;6.19;93.12
55191;BME280;41070;50.360;18.742;2024-02-15T00:31:05;99185.41;;;6.15;93.24
55191;BME280;41070;50.360;18.742;2024-02-15T00:33:34;99184.90;;;6.11;93.01
55191;BME280;41070;50.360;18.742;2024-02-15T00:36:03;99189.11;;;6.08;93.38
55191;BME280;41070;50.360;18.742;2024-02-15T00:38:31;99189.14;;;6.09;93.50
55191;BME280;41070;50.360;18.742;2024-02-15T00:40:59;99189.39;;;6.09;93.55
55191;BME280;41070;50.360;18.742;2024-02-15T00:43:27;99188.93;;;6.09;93.52
55191;BME280;41070;50.360;18.742;2024-02-15T00:45:55;99188.19;;;6.09;93.45
55191;BME280;41070;50.360;18.742;2024-02-15T00:48:23;99191.29;;;6.08;93.53
55191;BME280;41070;50.360;18.742;2024-02-15T00:50:52;99189.19;;;6.10;93.62
55191;BME280;41070;50.360;18.742;2024-02-15T00:53:20;99188.47;;;6.08;93.47
55191;BME280;41070;50.360;18.742;2024-02-15T00:55:48;99196.49;;;6.10;93.88
55191;BME280;41070;50.360;18.742;2024-02-15T00:58:16;99195.19;;;6.15;93.84
55191;BME280;41070;50.360;18.742;2024-02-15T01:00:43;99194.88;;;6.17;93.62
55191;BME280;41070;50.360;18.742;2024-02-15T01:03:11;99196.67;;;6.20;93.46
55191;BME280;41070;50.360;18.742;2024-02-15T01:05:39;99192.15;;;6.20;93.64
55191;BME280;41070;50.360;18.742;2024-02-15T01:08:07;99191.54;;;6.22;93.64
55191;BME280;41070;50.360;18.742;2024-02-15T01:10:35;99188.98;;;6.22;93.47
55191;BME280;41070;50.360;18.742;2024-02-15T01:13:03;99188.27;;;6.23;93.58
55191;BME280;41070;50.360;18.742;2024-02-15T01:15:31;99188.30;;;6.24;93.43
55191;BME280;41070;50.360;18.742;2024-02-15T01:17:58;99186.33;;;6.25;93.45
55191;BME280;41070;50.360;18.742;2024-02-15T01:20:26;99182.55;;;6.24;93.37
55191;BME280;41070;50.360;18.742;2024-02-15T01:22:54;99179.25;;;6.20;93.42
55191;BME280;41070;50.360;18.742;2024-02-15T01:25:22;99179.61;;;6.20;93.41
55191;BME280;41070;50.360;18.742;2024-02-15T01:27:50;99176.78;;;6.18;93.63
55191;BME280;41070;50.360;18.742;2024-02-15T01:30:17;99175.14;;;6.16;93.46
55191;BME280;41070;50.360;18.742;2024-02-15T01:32:45;99177.90;;;6.13;93.57
55191;BME280;41070;50.360;18.742;2024-02-15T01:35:13;99170.02;;;6.11;93.70
55191;BME280;41070;50.360;18.742;2024-02-15T01:37:40;99168.91;;;6.11;94.18
55191;BME280;41070;50.360;18.742;2024-02-15T01:40:09;99168.73;;;6.12;94.12
55191;BME280;41070;50.360;18.742;2024-02-15T01:42:39;99162.01;;;6.16;94.49
55191;BME280;41070;50.360;18.742;2024-02-15T01:45:07;99165.02;;;6.17;94.26
55191;BME280;41070;50.360;18.742;2024-02-15T01:47:36;99162.56;;;6.15;94.40
55191;BME280;41070;50.360;18.742;2024-02-15T17:17:20;99183.23;;;9.01;93.84
55191;BME280;41070;50.360;18.742;2024-02-15T17:19:48;99181.77;;;8.95;94.11
55191;BME280;41070;50.360;18.742;2024-02-15T17:22:17;99179.79;;;8.93;94.18
55191;BME280;41070;50.360;18.742;2024-02-15T17:24:45;99182.21;;;8.91;94.36
55191;BME280;41070;50.360;18.742;2024-02-15T17:27:12;99184.38;;;8.88;94.30
55191;BME280;41070;50.360;18.742;2024-02-15T17:29:41;99187.59;;;8.86;94.53
55191;BME280;41070;50.360;18.742;2024-02-15T17:32:09;99187.90;;;8.83;94.66
55191;BME280;41070;50.360;18.742;2024-02-15T17:34:38;99182.77;;;8.80;94.77
55191;BME280;41070;50.360;18.742;2024-02-15T17:37:06;99185.73;;;8.79;94.83
55191;BME280;41070;50.360;18.742;2024-02-15T17:39:34;99187.44;;;8.76;94.83
55191;BME280;41070;50.360;18.742;2024-02-15T17:42:02;99190.02;;;8.72;94.83
55191;BME280;41070;50.360;18.742;2024-02-15T17:44:29;99187.98;;;8.69;95.14
55191;BME280;41070;50.360;18.742;2024-02-15T17:46:57;99190.77;;;8.68;95.06
55191;BME280;41070;50.360;18.742;2024-02-15T17:49:26;99189.33;;;8.66;95.01
55191;BME280;41070;50.360;18.742;2024-02-15T17:51:55;99190.23;;;8.65;95.02
55191;BME280;41070;50.360;18.742;2024-02-15T17:54:23;99194.17;;;8.61;94.99
55191;BME280;41070;50.360;18.742;2024-02-15T17:56:50;99198.18;;;8.58;95.06
55191;BME280;41070;50.360;18.742;2024-02-15T17:59:20;99195.66;;;8.55;95.12
55191;BME280;41070;50.360;18.742;2024-02-15T18:01:47;99199.43;;;8.52;95.08
55191;BME280;41070;50.360;18.742;2024-02-15T18:04:16;99201.84;;;8.50;95.24
55191;BME280;41070;50.360;18.742;2024-02-15T18:06:45;99204.17;;;8.48;95.36
55191;BME280;41070;50.360;18.742;2024-02-15T18:09:13;99205.86;;;8.47;95.22
55191;BME280;41070;50.360;18.742;2024-02-15T18:11:43;99207.95;;;8.45;95.35
55191;BME280;41070;50.360;18.742;2024-02-15T18:14:11;99209.24;;;8.43;95.42
55191;BME280;41070;50.360;18.742;2024-02-15T18:16:39;99205.51;;;8.41;95.53
55191;BME280;41070;50.360;18.742;2024-02-15T18:19:06;99201.89;;;8.38;95.80
55191;BME280;41070;50.360;18.742;2024-02-15T18:21:36;99205.54;;;8.36;95.83
55191;BME280;41070;50.360;18.742;2024-02-15T18:24:04;99207.59;;;8.31;95.70
55191;BME280;41070;50.360;18.742;2024-02-15T18:26:32;99204.42;;;8.29;96.26
55191;BME280;41070;50.360;18.742;2024-02-15T18:29:18;99206.31;;;8.33;96.31
55191;BME280;41070;50.360;18.742;2024-02-15T18:32:08;99212.08;;;8.31;96.19
55191;BME280;41070;50.360;18.742;2024-02-15T18:34:40;99206.81;;;8.29;96.10
55191;BME280;41070;50.360;18.742;2024-02-15T18:37:08;99208.84;;;8.25;96.24
55191;BME280;41070;50.360;18.742;2024-02-15T18:39:36;99208.89;;;8.27;96.59
55191;BME280;41070;50.360;18.742;2024-02-15T18:42:05;99208.36;;;8.27;96.37
55191;BME280;41070;50.360;18.742;2024-02-15T18:44:33;99205.60;;;8.20;96.20
55191;BME280;41070;50.360;18.742;2024-02-15T18:47:01;99207.28;;;8.12;95.63
55191;BME280;41070;50.360;18.742;2024-02-15T18:49:32;99204.82;;;8.02;95.78
55191;BME280;41070;50.360;18.742;2024-02-15T18:52:14;99204.33;;;7.96;96.29
55191;BME280;41070;50.360;18.742;2024-02-15T18:55:00;99207.06;;;7.97;96.49
55191;BME280;41070;50.360;18.742;2024-02-15T18:57:28;99202.98;;;7.97;96.39
55191;BME280;41070;50.360;18.742;2024-02-15T18:59:56;99206.49;;;7.89;96.17
55191;BME280;41070;50.360;18.742;2024-02-15T19:02:25;99206.13;;;7.81;95.96
55191;BME280;41070;50.360;18.742;2024-02-15T19:04:57;99204.64;;;7.73;95.96
55191;BME280;41070;50.360;18.742;2024-02-15T19:07:31;99201.59;;;7.65;96.38
55191;BME280;41070;50.360;18.742;2024-02-15T19:09:59;99203.66;;;7.65;96.65
55191;BME280;41070;50.360;18.742;2024-02-15T19:12:28;99203.98;;;7.63;96.80
55191;BME280;41070;50.360;18.742;2024-02-15T19:14:58;99202.45;;;7.63;97.03
55191;BME280;41070;50.360;18.742;2024-02-15T19:17:27;99203.77;;;7.63;97.15
55191;BME280;41070;50.360;18.742;2024-02-15T19:19:55;99200.77;;;7.64;97.33
55191;BME280;41070;50.360;18.742;2024-02-15T19:22:23;99197.98;;;7.61;97.21
55191;BME280;41070;50.360;18.742;2024-02-15T19:24:51;99199.37;;;7.57;96.99
55191;BME280;41070;50.360;18.742;2024-02-15T19:27:20;99203.40;;;7.45;96.25
55191;BME280;41070;50.360;18.742;2024-02-15T19:29:54;99205.70;;;7.34;96.39
55191;BME280;41070;50.360;18.742;2024-02-15T19:32:22;99207.39;;;7.26;96.59
55191;BME280;41070;50.360;18.742;2024-02-15T19:35:08;99206.80;;;7.22;96.80
55191;BME280;41070;50.360;18.742;2024-02-15T19:37:42;99203.34;;;7.16;96.83
55191;BME280;41070;50.360;18.742;2024-02-15T19:40:10;99204.31;;;7.10;97.06
55191;BME280;41070;50.360;18.742;2024-02-15T19:42:46;99203.11;;;7.08;97.00
55191;BME280;41070;50.360;18.742;2024-02-15T19:45:17;99204.27;;;7.02;97.05
55191;BME280;41070;50.360;18.742;2024-02-15T19:47:52;99202.52;;;6.99;97.15
55191;BME280;41070;50.360;18.742;2024-02-15T19:50:21;99200.02;;;6.95;97.25
55191;BME280;41070;50.360;18.742;2024-02-15T19:52:52;99203.56;;;6.91;97.26
55191;BME280;41070;50.360;18.742;2024-02-15T19:55:20;99203.35;;;6.88;97.50
55191;BME280;41070;50.360;18.742;2024-02-15T19:57:48;99205.98;;;6.86;97.56
55191;BME280;41070;50.360;18.742;2024-02-15T20:00:17;99208.25;;;6.86;97.68
55191;BME280;41070;50.360;18.742;2024-02-15T20:02:46;99208.76;;;6.85;97.82
55191;BME280;41070;50.360;18.742;2024-02-15T20:05:14;99210.61;;;6.84;97.76
55191;BME280;41070;50.360;18.742;2024-02-15T20:07:43;99204.55;;;6.83;97.66
55191;BME280;41070;50.360;18.742;2024-02-15T20:10:11;99203.06;;;6.78;97.60
55191;BME280;41070;50.360;18.742;2024-02-15T20:12:39;99200.34;;;6.74;97.87
55191;BME280;41070;50.360;18.742;2024-02-15T20:15:10;99205.52;;;6.76;98.12
55191;BME280;41070;50.360;18.742;2024-02-15T20:17:38;99206.44;;;6.74;98.17
55191;BME280;41070;50.360;18.742;2024-02-15T20:20:06;99204.24;;;6.73;98.01
55191;BME280;41070;50.360;18.742;2024-02-15T20:22:35;99208.05;;;6.72;98.20
55191;BME280;41070;50.360;18.742;2024-02-15T20:25:06;99206.88;;;6.71;98.23
55191;BME280;41070;50.360;18.742;2024-02-15T20:27:35;99206.11;;;6.68;98.10
55191;BME280;41070;50.360;18.742;2024-02-15T20:30:03;99202.34;;;6.65;98.13
55191;BME280;41070;50.360;18.742;2024-02-15T20:32:31;99203.04;;;6.63;98.24
55191;BME280;41070;50.360;18.742;2024-02-15T20:34:59;99205.82;;;6.62;98.62
55191;BME280;41070;50.360;18.742;2024-02-15T20:37:27;99203.35;;;6.63;98.71
55191;BME280;41070;50.360;18.742;2024-02-15T20:39:55;99198.65;;;6.62;98.59
55191;BME280;41070;50.360;18.742;2024-02-15T20:42:37;99197.30;;;6.60;98.89
55191;BME280;41070;50.360;18.742;2024-02-15T20:45:09;99198.19;;;6.63;99.01
55191;BME280;41070;50.360;18.742;2024-02-15T20:47:37;99200.20;;;6.61;98.69
55191;BME280;41070;50.360;18.742;2024-02-15T20:50:08;99200.46;;;6.57;98.55
55191;BME280;41070;50.360;18.742;2024-02-15T20:52:39;99195.95;;;6.54;98.80
55191;BME280;41070;50.360;18.742;2024-02-15T20:55:11;99191.36;;;6.51;98.80
55191;BME280;41070;50.360;18.742;2024-02-15T20:57:39;99193.70;;;6.50;98.94
55191;BME280;41070;50.360;18.742;2024-02-15T21:00:10;99189.77;;;6.50;99.10
55191;BME280;41070;50.360;18.742;2024-02-15T21:02:44;99189.82;;;6.49;99.20
55191;BME280;41070;50.360;18.742;2024-02-15T21:05:12;99191.38;;;6.49;99.24
55191;BME280;41070;50.360;18.742;2024-02-15T21:07:40;99187.73;;;6.47;99.42
55191;BME280;41070;50.360;18.742;2024-02-15T21:10:08;99188.20;;;6.46;99.27
55191;BME280;41070;50.360;18.742;2024-02-15T21:12:38;99192.21;;;6.44;99.30
55191;BME280;41070;50.360;18.742;2024-02-15T21:15:07;99189.78;;;6.42;99.28
55191;BME280;41070;50.360;18.742;2024-02-15T21:17:39;99190.97;;;6.41;99.77
55191;BME280;41070;50.360;18.742;2024-02-15T21:20:07;99188.02;;;6.42;99.92
55191;BME280;41070;50.360;18.742;2024-02-15T21:22:42;99182.84;;;6.41;99.74
55191;BME280;41070;50.360;18.742;2024-02-15T21:25:10;99180.66;;;6.41;99.96
55191;BME280;41070;50.360;18.742;2024-02-15T21:27:39;99179.54;;;6.39;99.84
55191;BME280;41070;50.360;18.742;2024-02-15T21:30:07;99175.50;;;6.38;99.93
55191;BME280;41070;50.360;18.742;2024-02-15T21:32:35;99172.38;;;6.40;99.97
55191;BME280;41070;50.360;18.742;2024-02-15T21:35:03;99172.70;;;6.40;100.00
55191;BME280;41070;50.360;18.742;2024-02-15T21:37:32;99171.97;;;6.39;99.97
55191;BME280;41070;50.360;18.742;2024-02-15T21:40:01;99174.58;;;6.40;100.00
55191;BME280;41070;50.360;18.742;2024-02-15T21:42:30;99169.12;;;6.38;100.00
55191;BME280;41070;50.360;18.742;2024-02-15T21:44:59;99167.45;;;6.37;99.96
55191;BME280;41070;50.360;18.742;2024-02-15T21:47:27;99161.27;;;6.33;99.99
55191;BME280;41070;50.360;18.742;2024-02-15T21:49:55;99159.10;;;6.30;99.87
55191;BME280;41070;50.360;18.742;2024-02-15T21:52:23;99158.11;;;6.27;99.92
55191;BME280;41070;50.360;18.742;2024-02-15T21:54:50;99155.42;;;6.23;99.96
55191;BME280;41070;50.360;18.742;2024-02-15T21:57:18;99156.42;;;6.21;99.98
55191;BME280;41070;50.360;18.742;2024-02-15T21:59:46;99158.21;;;6.19;99.99
55191;BME280;41070;50.360;18.742;2024-02-15T22:02:14;99157.22;;;6.19;100.00
55191;BME280;41070;50.360;18.742;2024-02-15T22:04:45;99158.95;;;6.23;100.00
55191;BME280;41070;50.360;18.742;2024-02-15T22:07:13;99157.29;;;6.30;100.00
55191;BME280;41070;50.360;18.742;2024-02-15T22:09:46;99155.48;;;6.32;100.00
55191;BME280;41070;50.360;18.742;2024-02-15T22:12:17;99159.35;;;6.38;100.00
55191;BME280;41070;50.360;18.742;2024-02-15T22:14:45;99162.80;;;6.45;100.00
55191;BME280;41070;50.360;18.742;2024-02-15T22:17:13;99165.13;;;6.52;100.00
55191;BME280;41070;50.360;18.742;2024-02-15T22:19:42;99163.34;;;6.59;100.00
55191;BME280;41070;50.360;18.742;2024-02-15T22:22:10;99164.86;;;6.64;100.00
55191;BME280;41070;50.360;18.742;2024-02-15T22:24:38;99170.27;;;6.68;100.00
55191;BME280;41070;50.360;18.742;2024-02-15T22:27:06;99168.40;;;6.70;100.00
55191;BME280;41070;50.360;18.742;2024-02-15T22:29:33;99170.27;;;6.74;100.00
55191;BME280;41070;50.360;18.742;2024-02-15T22:32:01;99166.60;;;6.77;100.00
55191;BME280;41070;50.360;18.742;2024-02-15T22:34:29;99168.77;;;6.79;100.00
55191;BME280;41070;50.360;18.742;2024-02-15T22:36:58;99167.58;;;6.82;100.00
55191;BME280;41070;50.360;18.742;2024-02-15T22:39:26;99165.72;;;6.85;100.00
55191;BME280;41070;50.360;18.742;2024-02-15T22:41:54;99162.67;;;6.87;100.00
55191;BME280;41070;50.360;18.742;2024-02-15T22:44:22;99162.52;;;6.89;100.00
55191;BME280;41070;50.360;18.742;2024-02-15T22:46:50;99165.74;;;6.90;100.00
55191;BME280;41070;50.360;18.742;2024-02-15T22:49:20;99166.41;;;6.91;100.00
55191;BME280;41070;50.360;18.742;2024-02-15T22:51:47;99169.67;;;6.93;100.00
55191;BME280;41070;50.360;18.742;2024-02-15T22:54:16;99169.52;;;6.95;100.00
55191;BME280;41070;50.360;18.742;2024-02-15T22:56:44;99170.35;;;7.00;100.00
55191;BME280;41070;50.360;18.742;2024-02-15T22:59:12;99169.50;;;7.04;100.00
55191;BME280;41070;50.360;18.742;2024-02-15T23:01:41;99169.95;;;7.06;100.00
55191;BME280;41070;50.360;18.742;2024-02-15T23:04:09;99172.05;;;7.11;100.00
55191;BME280;41070;50.360;18.742;2024-02-15T23:06:37;99168.40;;;7.16;100.00
55191;BME280;41070;50.360;18.742;2024-02-15T23:09:05;99173.70;;;7.15;100.00
55191;BME280;41070;50.360;18.742;2024-02-15T23:11:34;99175.92;;;7.16;100.00
55191;BME280;41070;50.360;18.742;2024-02-15T23:14:04;99173.89;;;7.16;100.00
55191;BME280;41070;50.360;18.742;2024-02-15T23:16:33;99176.98;;;7.16;100.00
55191;BME280;41070;50.360;18.742;2024-02-15T23:19:01;99171.69;;;7.17;100.00
55191;BME280;41070;50.360;18.742;2024-02-15T23:21:29;99174.97;;;7.16;100.00
55191;BME280;41070;50.360;18.742;2024-02-15T23:23:57;99170.23;;;7.16;100.00
55191;BME280;41070;50.360;18.742;2024-02-15T23:26:25;99170.60;;;7.16;100.00
55191;BME280;41070;50.360;18.742;2024-02-15T23:28:53;99167.73;;;7.15;100.00
55191;BME280;41070;50.360;18.742;2024-02-15T23:31:21;99163.20;;;7.16;100.00
55191;BME280;41070;50.360;18.742;2024-02-15T23:33:48;99164.90;;;7.16;100.00
55191;BME280;41070;50.360;18.742;2024-02-15T23:36:16;99164.31;;;7.18;100.00
55191;BME280;41070;50.360;18.742;2024-02-15T23:39:02;99159.98;;;7.21;100.00
55191;BME280;41070;50.360;18.742;2024-02-15T23:41:47;99162.70;;;7.25;100.00
55191;BME280;41070;50.360;18.742;2024-02-15T23:44:15;99161.86;;;7.27;100.00
55191;BME280;41070;50.360;18.742;2024-02-15T23:46:43;99164.08;;;7.29;100.00
55191;BME280;41070;50.360;18.742;2024-02-15T23:49:11;99159.65;;;7.30;100.00
55191;BME280;41070;50.360;18.742;2024-02-15T23:51:40;99163.94;;;7.31;100.00
55191;BME280;41070;50.360;18.742;2024-02-15T23:54:08;99163.05;;;7.34;100.00
55191;BME280;41070;50.360;18.742;2024-02-15T23:56:36;99166.94;;;7.38;100.00
55191;BME280;41070;50.360;18.742;2024-02-15T23:59:05;99161.66;;;7.40;100.00
